Glasford, Illinois
Current Conditions -  °F | °C
As of 4:19 AM on Saturday 25 Oct 2014 (Local Time) from KPIA Reporting Station
Haze Haze  
Wind Chill: 53°   Ceiling: 1500
Heat Index: 53°   Visibility: 6mi
Dew Point: 49°   Wind: 0mph
Humidity: 86%   Direction: NA
Pressure: 29.96"   Gusts: NA
Location:  40.57°N, 89.81°W
Report Text: KPIA 250919Z 00000KT 6SM BR OVC015 12/09 A2996 RMK AO2 T01170094
Loading
Personal Weather Stations






























Interactive Weather Map
Tropical Storm Tracking
New forecast layout! Learn more

10-Day Weather Forecast

Advertisements
Track Severe Weather on mobile